Tommy Cenac — WDJ7482 — position and weather

sailwx.info

Track history (hours):
 
Tides and Currents Weather Stations Pressure Air Temp Water Temp Dewpoint Dewpoint Depression Visibility Wind Speed Wind Dir Waves Ship Positions

Tommy Cenac

Owner: Cenac Marine Services, LLC, Houma, LA. More information available from US FCC via Universal Licensing System and Coast Guard Vessel Documentation Center.

Last reported at 2018-Apr-11 12:00 UTC. Time now 2018-Apr-25 14:14 UTC.
Position N 33°05' W 091°10'.
Warning: this ship's position is 14 days out of date.

Length 25 m; draft 3.8 m.

Type: Ship (hazmat cat A). MMSI: 368007140.

Date/timePositionNaut miles runAvg speedWind from/ knotsBaromVisibWave heightAir tempDewpointWater temp
2018-Apr-11 12:00N 33°05' W 091°10'19 3.7
2018-Apr-11 06:55N 32°46' W 091°09'2 4.9
2018-Apr-11 06:30N 32°44' W 091°09'5 2.1
2018-Apr-11 04:18N 32°40' W 091°07'3 5.5
2018-Apr-11 03:48N 32°37' W 091°09'2 5.3
2018-Apr-11 03:30N 32°36' W 091°08'2 4.9
2018-Apr-11 03:00N 32°34' W 091°07'3 5.2
2018-Apr-11 02:30N 32°31' W 091°07'2 3.9
2018-Apr-11 02:01N 32°29' W 091°07'2 4.1
2018-Apr-11 01:30N 32°27' W 091°05'2 4.2
2018-Apr-11 01:00N 32°26' W 091°03'2 4.0
2018-Apr-11 00:30N 32°25' W 091°01'2 4.8
2018-Apr-11 00:00N 32°23' W 090°60'2 3.9
2018-Apr-10 23:30N 32°21' W 090°59'3 5.2
2018-Apr-10 23:00N 32°21' W 090°56'2 4.3
2018-Apr-10 22:30N 32°20' W 090°54'1 2.9
2018-Apr-10 22:00N 32°18' W 090°55'0 0.5
2018-Apr-10 21:30N 32°18' W 090°55'0 0.0
2018-Apr-10 21:00N 32°18' W 090°55'0 0.0
2018-Apr-10 20:31N 32°18' W 090°55'0 0.0
2018-Apr-10 20:00N 32°18' W 090°55'0 0.0
2018-Apr-10 19:30N 32°18' W 090°55'0 0.0
2018-Apr-10 18:58N 32°18' W 090°55'0 0.0
2018-Apr-10 18:30N 32°18' W 090°55'0 0.0
2018-Apr-10 18:01N 32°18' W 090°55'0 0.0
2018-Apr-10 17:28N 32°18' W 090°55'0 0.0
2018-Apr-10 16:55N 32°18' W 090°55'1 1.7
2018-Apr-10 16:30N 32°18' W 090°56'2 3.9
2018-Apr-10 16:00N 32°16' W 090°57'3 5.0
2018-Apr-10 15:30N 32°14' W 090°59'2 4.3
2018-Apr-10 15:00N 32°12' W 090°59'2 3.2
2018-Apr-10 14:30N 32°10' W 090°60'2 4.3
2018-Apr-10 13:57N 32°08' W 091°00'2 3.9
2018-Apr-10 13:30N 32°07' W 091°02'2 3.3
2018-Apr-10 12:57N 32°08' W 091°04'2 3.6
2018-Apr-10 12:29N 32°07' W 091°06'2 4.4
2018-Apr-10 11:57N 32°05' W 091°04'3 4.6
2018-Apr-10 11:15N 32°02' W 091°04'1 5.2
2018-Apr-10 10:59N 32°01' W 091°05'  
2018-Apr-04 17:24N 31°60' W 091°05'4 9.6
2018-Apr-04 17:00N 32°04' W 091°04'4 8.9
2018-Apr-04 16:30N 32°07' W 091°07'4 7.7
2018-Apr-04 16:00N 32°07' W 091°02'4 8.6
2018-Apr-04 15:31N 32°11' W 090°60'9 9.1
2018-Apr-04 14:30N 32°19' W 090°54'4 7.2
2018-Apr-04 14:00N 32°21' W 090°58'3 6.0
2018-Apr-04 13:30N 32°24' W 090°59'1 1.1
2018-Apr-04 13:01N 32°24' W 090°59'0 0.0
2018-Apr-04 12:30N 32°24' W 090°59'1 1.4
2018-Apr-04 12:00N 32°23' W 090°59'2 3.3
2018-Apr-04 11:30N 32°25' W 091°00'4 7.1
2018-Apr-04 10:59N 32°27' W 091°04'3 7.1
2018-Apr-04 10:30N 32°29' W 091°07'1 2.1
2018-Apr-04 09:59N 32°30' W 091°07'0 0.0
2018-Apr-04 09:30N 32°30' W 091°07'0 0.0
2018-Apr-04 08:59N 32°30' W 091°07'0 0.0
2018-Apr-04 08:30N 32°30' W 091°07'0 0.0
2018-Apr-04 08:00N 32°30' W 091°07'0 0.0
2018-Apr-04 07:30N 32°30' W 091°07'0 0.0
2018-Apr-04 06:57N 32°30' W 091°07'0 0.0
2018-Apr-04 06:30N 32°30' W 091°07'0 0.0
2018-Apr-04 06:00N 32°30' W 091°07'0 0.1
2018-Apr-04 05:30N 32°30' W 091°07'0 0.0
2018-Apr-04 05:00N 32°30' W 091°07'0 0.0
2018-Apr-04 04:30N 32°30' W 091°07'0 0.0
2018-Apr-04 04:00N 32°30' W 091°07'0 0.0
2018-Apr-04 03:30N 32°30' W 091°07'0 0.0
2018-Apr-04 02:56N 32°30' W 091°07'0 0.1
2018-Apr-04 02:30N 32°30' W 091°07'0 0.1
2018-Apr-04 02:00N 32°30' W 091°07'0 0.5
2018-Apr-04 01:30N 32°30' W 091°07'2 3.2
2018-Apr-04 00:54N 32°32' W 091°06'4 9.3
2018-Apr-04 00:30N 32°35' W 091°08'4 7.5
2018-Apr-03 23:55N 32°40' W 091°08'  
Track history (hours):
 
Tides and Currents Weather Stations Pressure Air Temp Water Temp Dewpoint Dewpoint Depression Visibility Wind Speed Wind Dir Waves Ship Positions

Tommy Cenac

Owner: Cenac Marine Services, LLC, Houma, LA. More information available from US FCC via Universal Licensing System and Coast Guard Vessel Documentation Center.

Last reported at 2018-Apr-11 12:00 UTC. Time now 2018-Apr-25 14:14 UTC.
Position N 33°05' W 091°10'.
Warning: this ship's position is 14 days out of date.

Length 25 m; draft 3.8 m.

Type: Ship (hazmat cat A). MMSI: 368007140.

Date/timePositionNaut miles runAvg speedWind from/ knotsBaromVisibWave heightAir tempDewpointWater temp
2018-Apr-11 12:00N 33°05' W 091°10'19 3.7
2018-Apr-11 06:55N 32°46' W 091°09'2 4.9
2018-Apr-11 06:30N 32°44' W 091°09'5 2.1
2018-Apr-11 04:18N 32°40' W 091°07'3 5.5
2018-Apr-11 03:48N 32°37' W 091°09'2 5.3
2018-Apr-11 03:30N 32°36' W 091°08'2 4.9
2018-Apr-11 03:00N 32°34' W 091°07'3 5.2
2018-Apr-11 02:30N 32°31' W 091°07'2 3.9
2018-Apr-11 02:01N 32°29' W 091°07'2 4.1
2018-Apr-11 01:30N 32°27' W 091°05'2 4.2
2018-Apr-11 01:00N 32°26' W 091°03'2 4.0
2018-Apr-11 00:30N 32°25' W 091°01'2 4.8
2018-Apr-11 00:00N 32°23' W 090°60'2 3.9
2018-Apr-10 23:30N 32°21' W 090°59'3 5.2
2018-Apr-10 23:00N 32°21' W 090°56'2 4.3
2018-Apr-10 22:30N 32°20' W 090°54'1 2.9
2018-Apr-10 22:00N 32°18' W 090°55'0 0.5
2018-Apr-10 21:30N 32°18' W 090°55'0 0.0
2018-Apr-10 21:00N 32°18' W 090°55'0 0.0
2018-Apr-10 20:31N 32°18' W 090°55'0 0.0
2018-Apr-10 20:00N 32°18' W 090°55'0 0.0
2018-Apr-10 19:30N 32°18' W 090°55'0 0.0
2018-Apr-10 18:58N 32°18' W 090°55'0 0.0
2018-Apr-10 18:30N 32°18' W 090°55'0 0.0
2018-Apr-10 18:01N 32°18' W 090°55'0 0.0
2018-Apr-10 17:28N 32°18' W 090°55'0 0.0
2018-Apr-10 16:55N 32°18' W 090°55'1 1.7
2018-Apr-10 16:30N 32°18' W 090°56'2 3.9
2018-Apr-10 16:00N 32°16' W 090°57'3 5.0
2018-Apr-10 15:30N 32°14' W 090°59'2 4.3
2018-Apr-10 15:00N 32°12' W 090°59'2 3.2
2018-Apr-10 14:30N 32°10' W 090°60'2 4.3
2018-Apr-10 13:57N 32°08' W 091°00'2 3.9
2018-Apr-10 13:30N 32°07' W 091°02'2 3.3
2018-Apr-10 12:57N 32°08' W 091°04'2 3.6
2018-Apr-10 12:29N 32°07' W 091°06'2 4.4
2018-Apr-10 11:57N 32°05' W 091°04'3 4.6
2018-Apr-10 11:15N 32°02' W 091°04'1 5.2
2018-Apr-10 10:59N 32°01' W 091°05'  
2018-Apr-04 17:24N 31°60' W 091°05'4 9.6
2018-Apr-04 17:00N 32°04' W 091°04'4 8.9
2018-Apr-04 16:30N 32°07' W 091°07'4 7.7
2018-Apr-04 16:00N 32°07' W 091°02'4 8.6
2018-Apr-04 15:31N 32°11' W 090°60'9 9.1
2018-Apr-04 14:30N 32°19' W 090°54'4 7.2
2018-Apr-04 14:00N 32°21' W 090°58'3 6.0
2018-Apr-04 13:30N 32°24' W 090°59'1 1.1
2018-Apr-04 13:01N 32°24' W 090°59'0 0.0
2018-Apr-04 12:30N 32°24' W 090°59'1 1.4
2018-Apr-04 12:00N 32°23' W 090°59'2 3.3
2018-Apr-04 11:30N 32°25' W 091°00'4 7.1
2018-Apr-04 10:59N 32°27' W 091°04'3 7.1
2018-Apr-04 10:30N 32°29' W 091°07'1 2.1
2018-Apr-04 09:59N 32°30' W 091°07'0 0.0
2018-Apr-04 09:30N 32°30' W 091°07'0 0.0
2018-Apr-04 08:59N 32°30' W 091°07'0 0.0
2018-Apr-04 08:30N 32°30' W 091°07'0 0.0
2018-Apr-04 08:00N 32°30' W 091°07'0 0.0
2018-Apr-04 07:30N 32°30' W 091°07'0 0.0
2018-Apr-04 06:57N 32°30' W 091°07'0 0.0
2018-Apr-04 06:30N 32°30' W 091°07'0 0.0
2018-Apr-04 06:00N 32°30' W 091°07'0 0.1
2018-Apr-04 05:30N 32°30' W 091°07'0 0.0
2018-Apr-04 05:00N 32°30' W 091°07'0 0.0
2018-Apr-04 04:30N 32°30' W 091°07'0 0.0
2018-Apr-04 04:00N 32°30' W 091°07'0 0.0
2018-Apr-04 03:30N 32°30' W 091°07'0 0.0
2018-Apr-04 02:56N 32°30' W 091°07'0 0.1
2018-Apr-04 02:30N 32°30' W 091°07'0 0.1
2018-Apr-04 02:00N 32°30' W 091°07'0 0.5
2018-Apr-04 01:30N 32°30' W 091°07'2 3.2
2018-Apr-04 00:54N 32°32' W 091°06'4 9.3
2018-Apr-04 00:30N 32°35' W 091°08'4 7.5
2018-Apr-03 23:55N 32°40' W 091°08'  

Dump ship's entire track history